Time;durP1;ratioP1;P1;durP2;ratioP2;P2;SDS_P1;SDS_P2;PMS_P1;PMS_P2;Temp;Humidity;BMP_temperature;BMP_pressure;BME280_temperature;BME280_humidity;BME280_pressure;Samples;Min_cycle;Max_cycle;Signal;HPM_P1;HPM_P2
2022/09/01 00:01:19;;;;;;;0.50;0.47;;;;;;;17.26;100.00;100755.25;7389145;19;20014;-80
2022/09/01 00:03:47;;;;;;;0.40;0.40;;;;;;;17.23;100.00;100755.50;7385645;19;20010;-80
2022/09/01 00:06:21;;;;;;;0.52;0.50;;;;;;;17.31;100.00;100748.91;7387683;19;20019;-79
2022/09/01 00:08:51;;;;;;;0.40;0.30;;;;;;;17.37;100.00;100754.56;7387228;19;20026;-80
2022/09/01 00:11:18;;;;;;;1.67;0.75;;;;;;;17.31;100.00;100753.75;7388903;19;20018;-80
2022/09/01 00:13:44;;;;;;;0.50;0.50;;;;;;;17.14;100.00;100741.59;7386865;19;20022;-80
2022/09/01 00:16:14;;;;;;;3.63;1.33;;;;;;;17.23;100.00;100744.22;7388470;19;20022;-79
2022/09/01 00:18:41;;;;;;;0.40;0.40;;;;;;;17.33;100.00;100742.75;7387108;19;20038;-80
2022/09/01 00:21:09;;;;;;;7.43;0.77;;;;;;;17.27;100.00;100734.28;7386898;19;20029;-80
2022/09/01 00:23:36;;;;;;;0.30;0.30;;;;;;;17.24;100.00;100732.47;7386161;19;20086;-80
2022/09/01 00:26:03;;;;;;;7.38;0.50;;;;;;;17.36;100.00;100738.97;7388826;19;20018;-80
2022/09/01 00:28:32;;;;;;;7.13;0.73;;;;;;;17.34;100.00;100739.47;7386768;19;20022;-80
2022/09/01 00:30:59;;;;;;;2.92;1.38;;;;;;;17.30;100.00;100743.78;7388783;19;20033;-80
2022/09/01 00:33:26;;;;;;;1.73;0.65;;;;;;;17.21;100.00;100738.34;7384971;19;20677;-80
2022/09/01 00:35:52;;;;;;;0.70;0.70;;;;;;;17.23;100.00;100739.38;7386997;19;20483;-80
2022/09/01 00:38:19;;;;;;;0.60;0.20;;;;;;;17.14;100.00;100731.13;7385939;19;20025;-80
2022/09/01 00:40:45;;;;;;;3.05;1.85;;;;;;;17.17;100.00;100734.97;7384156;19;20025;-80
2022/09/01 00:43:35;;;;;;;0.40;0.40;;;;;;;17.12;100.00;100738.50;7382569;19;20035;-80
2022/09/01 00:46:03;;;;;;;0.75;0.60;;;;;;;17.06;100.00;100734.88;7388013;19;20033;-80
2022/09/01 00:48:31;;;;;;;0.55;0.55;;;;;;;17.03;100.00;100738.69;7387462;19;20011;-80
2022/09/01 00:50:58;;;;;;;0.50;0.50;;;;;;;16.83;100.00;100733.16;7384644;19;20018;-80
2022/09/01 00:53:25;;;;;;;1.95;0.75;;;;;;;16.85;100.00;100734.16;7385905;19;20037;-80
2022/09/01 00:55:51;;;;;;;2.05;0.80;;;;;;;16.92;100.00;100735.78;7385365;19;20031;-79
2022/09/01 00:58:17;;;;;;;2.63;0.90;;;;;;;16.77;100.00;100724.63;7384250;19;20034;-79
2022/09/01 01:00:48;;;;;;;2.25;0.75;;;;;;;16.96;100.00;100731.47;7385009;19;20025;-79
2022/09/01 01:03:14;;;;;;;8.57;0.60;;;;;;;16.80;100.00;100717.25;7386117;19;20064;-80
2022/09/01 01:05:52;;;;;;;0.82;0.63;;;;;;;16.92;100.00;100721.69;7387099;19;20022;-80
2022/09/01 01:08:33;;;;;;;0.60;0.50;;;;;;;16.80;100.00;100722.88;7382898;19;20022;-80
2022/09/01 01:11:21;;;;;;;0.67;0.67;;;;;;;17.00;100.00;100723.56;7384748;19;20011;-80
2022/09/01 01:13:51;;;;;;;1.23;0.70;;;;;;;17.17;100.00;100726.53;7385629;19;20789;-78
2022/09/01 01:16:18;;;;;;;0.57;0.57;;;;;;;17.22;100.00;100714.53;7384872;19;20018;-77
2022/09/01 01:18:44;;;;;;;0.95;0.73;;;;;;;17.09;100.00;100716.97;7383406;19;20018;-79
2022/09/01 01:24:33;;;;;;;1.08;0.98;;;;;;;17.18;100.00;100713.97;7383381;19;20499;-79
2022/09/01 01:27:00;;;;;;;1.13;0.45;;;;;;;17.06;100.00;100712.38;7385581;19;20018;-79
2022/09/01 01:29:32;;;;;;;5.78;1.05;;;;;;;17.24;100.00;100711.97;7384305;19;20022;-78
2022/09/01 01:32:00;;;;;;;0.90;0.65;;;;;;;17.41;100.00;100696.00;7389702;19;20019;-79
2022/09/01 01:34:27;;;;;;;8.52;1.05;;;;;;;17.48;100.00;100701.13;7385198;19;20021;-78
2022/09/01 01:37:00;;;;;;;1.20;0.40;;;;;;;17.52;100.00;100696.06;7387586;19;20065;-79
2022/09/01 01:39:27;;;;;;;3.53;0.73;;;;;;;17.53;100.00;100692.00;7382869;19;20018;-80
2022/09/01 01:41:56;;;;;;;0.93;0.52;;;;;;;17.58;100.00;100691.25;7383119;19;20015;-79
2022/09/01 01:44:27;;;;;;;2.15;0.52;;;;;;;17.59;100.00;100689.97;7382286;19;20022;-79
2022/09/01 01:46:56;;;;;;;0.47;0.30;;;;;;;17.80;100.00;100694.16;7386541;19;20038;-79
2022/09/01 01:49:29;;;;;;;0.82;0.60;;;;;;;17.81;100.00;100681.63;7384016;19;20018;-79
2022/09/01 01:51:56;;;;;;;1.00;0.30;;;;;;;17.77;100.00;100689.56;7386223;19;20504;-79
2022/09/01 01:54:31;;;;;;;2.92;1.85;;;;;;;17.78;100.00;100688.28;7385938;19;20021;-79
2022/09/01 01:56:59;;;;;;;1.33;0.63;;;;;;;17.76;100.00;100693.63;7395452;19;20081;-79
2022/09/01 01:59:25;;;;;;;4.70;0.65;;;;;;;17.73;100.00;100686.22;7390984;19;20090;-79
2022/09/01 02:01:52;;;;;;;2.05;0.90;;;;;;;17.67;100.00;100690.28;7392178;19;20472;-79
2022/09/01 02:04:19;;;;;;;1.35;0.93;;;;;;;17.62;100.00;100688.19;7388473;19;20185;-79
2022/09/01 02:06:48;;;;;;;0.40;0.40;;;;;;;17.64;100.00;100686.41;7391641;19;20469;-79
2022/09/01 02:09:19;;;;;;;0.60;0.50;;;;;;;17.56;100.00;100691.00;7391479;19;20121;-79
2022/09/01 02:11:45;;;;;;;1.08;0.55;;;;;;;17.42;100.00;100683.44;7391841;19;20077;-79
2022/09/01 02:14:14;;;;;;;0.35;0.25;;;;;;;17.24;100.00;100683.81;7391541;19;20020;-79
2022/09/01 02:16:41;;;;;;;1.92;0.60;;;;;;;17.31;100.00;100674.91;7392032;19;20364;-78
2022/09/01 02:19:09;;;;;;;1.52;0.93;;;;;;;17.32;100.00;100679.28;7386907;19;20014;-79
2022/09/01 02:21:35;;;;;;;5.40;0.50;;;;;;;17.22;100.00;100686.38;7388643;19;20026;-79
2022/09/01 02:24:04;;;;;;;0.60;0.60;;;;;;;17.15;100.00;100686.84;7389746;19;20024;-79
2022/09/01 02:26:37;;;;;;;1.23;0.90;;;;;;;17.07;100.00;100683.72;7391114;19;20025;-78
2022/09/01 02:29:07;;;;;;;2.60;0.68;;;;;;;17.03;100.00;100685.22;7391065;19;20018;-79
2022/09/01 02:31:40;;;;;;;0.63;0.43;;;;;;;17.09;100.00;100683.97;7395126;19;20029;-79
2022/09/01 02:34:12;;;;;;;0.40;0.40;;;;;;;17.15;100.00;100681.22;7391031;19;20011;-79
2022/09/01 02:36:49;;;;;;;1.90;0.77;;;;;;;17.14;100.00;100677.63;7390832;19;20014;-79
2022/09/01 02:39:22;;;;;;;1.30;0.50;;;;;;;17.17;100.00;100661.78;7389115;19;20025;-79
2022/09/01 02:41:49;;;;;;;4.43;1.45;;;;;;;17.24;100.00;100664.13;7388300;19;20027;-79
2022/09/01 02:44:21;;;;;;;2.92;1.05;;;;;;;16.69;100.00;100667.28;7386323;19;20030;-79
2022/09/01 02:46:49;;;;;;;2.70;1.30;;;;;;;16.55;100.00;100668.94;7390414;19;20025;-78
2022/09/01 02:49:24;;;;;;;1.38;1.02;;;;;;;16.90;100.00;100665.94;7390316;19;20440;-79
2022/09/01 02:51:53;;;;;;;5.03;2.13;;;;;;;17.08;100.00;100653.53;7391903;19;20018;-78
2022/09/01 02:54:23;;;;;;;1.33;1.05;;;;;;;17.18;100.00;100657.69;7388846;19;20500;-79
2022/09/01 02:56:53;;;;;;;2.03;0.98;;;;;;;17.33;100.00;100661.09;7389801;19;20033;-78
2022/09/01 02:59:22;;;;;;;2.35;1.27;;;;;;;17.32;100.00;100651.13;7387460;19;20018;-79
2022/09/01 03:01:51;;;;;;;4.13;1.67;;;;;;;17.28;100.00;100650.59;7391834;19;20010;-79
2022/09/01 03:04:18;;;;;;;2.03;0.95;;;;;;;17.24;100.00;100655.66;7387371;19;20018;-79
2022/09/01 03:06:46;;;;;;;2.08;0.95;;;;;;;17.29;100.00;100657.75;7389056;19;20019;-78
2022/09/01 03:09:15;;;;;;;5.28;1.75;;;;;;;17.39;100.00;100650.63;7388957;19;20428;-79
2022/09/01 03:11:45;;;;;;;1.70;0.70;;;;;;;17.36;100.00;100654.47;7388922;19;20022;-79
2022/09/01 03:14:12;;;;;;;3.33;1.43;;;;;;;17.45;100.00;100651.47;7388505;19;20025;-79
2022/09/01 03:16:39;;;;;;;2.55;1.20;;;;;;;17.51;100.00;100657.91;7390698;19;20018;-79
2022/09/01 03:19:08;;;;;;;2.50;1.58;;;;;;;17.54;100.00;100651.28;7386817;19;20369;-79
2022/09/01 03:21:39;;;;;;;4.45;1.55;;;;;;;17.56;100.00;100647.97;7387024;19;20026;-79
2022/09/01 03:24:08;;;;;;;2.20;1.38;;;;;;;17.55;100.00;100652.81;7385796;19;20479;-79
2022/09/01 03:26:35;;;;;;;1.90;1.08;;;;;;;17.58;100.00;100646.19;7388759;19;20014;-79
2022/09/01 03:29:02;;;;;;;2.47;0.93;;;;;;;17.69;100.00;100646.25;7390067;19;20022;-80
2022/09/01 03:31:29;;;;;;;3.42;0.80;;;;;;;17.71;100.00;100643.69;7391253;19;20029;-79
2022/09/01 03:33:58;;;;;;;3.42;1.05;;;;;;;17.73;100.00;100641.13;7386584;19;20026;-79
2022/09/01 03:36:32;;;;;;;3.90;1.27;;;;;;;17.04;100.00;100645.34;7390049;19;20019;-78
2022/09/01 03:39:00;;;;;;;3.83;1.35;;;;;;;16.91;100.00;100647.78;7387086;19;20090;-79
2022/09/01 03:41:29;;;;;;;1.15;0.82;;;;;;;16.66;100.00;100643.75;7386908;19;20018;-79
2022/09/01 03:43:59;;;;;;;1.83;0.80;;;;;;;16.87;100.00;100643.66;7386950;19;20726;-78
2022/09/01 03:46:32;;;;;;;1.50;0.85;;;;;;;16.80;100.00;100638.47;7388414;19;20418;-78
2022/09/01 03:49:02;;;;;;;4.53;1.33;;;;;;;17.42;100.00;100641.97;7387272;19;20041;-79
2022/09/01 03:51:29;;;;;;;0.80;0.77;;;;;;;18.11;100.00;100629.22;7390080;19;20007;-79
2022/09/01 03:53:57;;;;;;;2.60;1.70;;;;;;;17.79;100.00;100633.47;7387954;19;20023;-79
2022/09/01 03:56:27;;;;;;;4.97;0.85;;;;;;;17.69;100.00;100623.72;7389295;19;20113;-79
2022/09/01 03:58:57;;;;;;;1.25;0.70;;;;;;;17.64;100.00;100632.91;7385302;19;20056;-78
2022/09/01 04:01:26;;;;;;;2.60;0.85;;;;;;;17.97;100.00;100621.75;7388734;19;20014;-79
2022/09/01 04:03:53;;;;;;;1.75;0.68;;;;;;;18.31;100.00;100621.81;7386526;19;20014;-79
2022/09/01 04:06:23;;;;;;;1.08;0.85;;;;;;;18.23;100.00;100620.78;7388422;19;20045;-79
2022/09/01 04:08:55;;;;;;;0.40;0.40;;;;;;;17.89;100.00;100622.72;7387931;19;20014;-78
2022/09/01 04:11:22;;;;;;;2.08;0.73;;;;;;;17.68;100.00;100624.19;7387163;19;20018;-79
2022/09/01 04:13:51;;;;;;;1.38;1.00;;;;;;;17.60;100.00;100614.69;7387393;19;20126;-78
2022/09/01 04:19:14;;;;;;;2.00;1.20;;;;;;;17.46;100.00;100610.75;7385215;19;20014;-79
2022/09/01 04:21:42;;;;;;;2.00;1.42;;;;;;;17.38;100.00;100620.97;7387246;19;20015;-79
2022/09/01 04:24:12;;;;;;;1.38;0.80;;;;;;;17.41;100.00;100614.31;7384409;19;20050;-79
2022/09/01 04:26:39;;;;;;;2.42;0.85;;;;;;;17.36;100.00;100612.25;7387278;19;20015;-80
2022/09/01 04:29:07;;;;;;;1.85;1.55;;;;;;;17.42;100.00;100613.03;7386784;19;20018;-79
2022/09/01 04:31:36;;;;;;;3.60;1.52;;;;;;;17.48;100.00;100613.84;7390475;19;20015;-79
2022/09/01 04:34:13;;;;;;;3.33;1.02;;;;;;;17.49;100.00;100612.56;7387418;19;20074;-79
2022/09/01 04:36:43;;;;;;;3.13;1.35;;;;;;;18.00;100.00;100609.44;7388017;19;20045;-79
2022/09/01 04:39:12;;;;;;;1.48;0.70;;;;;;;18.25;100.00;100601.28;7384101;19;20015;-78
2022/09/01 04:41:41;;;;;;;5.63;2.03;;;;;;;18.33;100.00;100589.00;7384332;19;20368;-79
2022/09/01 04:44:08;;;;;;;1.70;1.27;;;;;;;18.38;100.00;100593.09;7384443;19;20015;-79
2022/09/01 04:46:46;;;;;;;1.13;0.73;;;;;;;18.42;100.00;100597.22;7386076;19;20028;-79
2022/09/01 04:49:18;;;;;;;2.53;1.38;;;;;;;18.55;100.00;100593.91;7386446;19;20022;-79
2022/09/01 04:51:45;;;;;;;;;;;;;;;18.63;100.00;100583.66;7389402;19;20128;-79
2022/09/01 04:54:13;;;;;;;2.50;1.05;;;;;;;18.67;100.00;100592.63;7386767;19;19926;-79
2022/09/01 04:56:43;;;;;;;1.77;1.17;;;;;;;18.73;100.00;100590.59;7388754;19;20018;-79
2022/09/01 04:59:16;;;;;;;1.27;0.95;;;;;;;18.73;100.00;100590.59;7384181;19;20014;-79
2022/09/01 05:01:49;;;;;;;1.88;1.15;;;;;;;18.75;100.00;100591.59;7388186;19;20033;-79
2022/09/01 05:04:21;;;;;;;1.05;0.90;;;;;;;18.53;100.00;100588.00;7382380;19;20018;-79
2022/09/01 05:06:51;;;;;;;1.08;0.88;;;;;;;18.48;100.00;100591.59;7387345;19;20018;-79
2022/09/01 05:09:18;;;;;;;1.67;0.95;;;;;;;18.22;100.00;100586.16;7384826;19;20027;-79
2022/09/01 05:11:51;;;;;;;2.05;0.98;;;;;;;18.49;100.00;100587.50;7383907;19;20711;-78
2022/09/01 05:14:24;;;;;;;0.60;0.60;;;;;;;18.63;100.00;100583.66;7384727;19;20014;-79
2022/09/01 05:16:57;;;;;;;0.50;0.38;;;;;;;18.13;100.00;100592.03;7386542;19;20505;-79
2022/09/01 05:19:27;;;;;;;3.25;0.60;;;;;;;18.36;100.00;100590.03;7385532;19;20734;-81
2022/09/01 05:21:57;;;;;;;1.85;0.85;;;;;;;18.57;100.00;100582.88;7384277;19;20010;-79
2022/09/01 05:24:29;;;;;;;1.25;0.63;;;;;;;18.57;100.00;100588.53;7384046;19;20081;-79
2022/09/01 05:26:58;;;;;;;1.92;1.05;;;;;;;18.58;100.00;100585.19;7387276;19;20478;-79
2022/09/01 05:29:26;;;;;;;2.22;0.45;;;;;;;18.55;100.00;100580.59;7389914;19;20578;-79
2022/09/01 05:31:56;;;;;;;0.82;0.82;;;;;;;18.47;100.00;100581.59;7396886;19;20022;-78
2022/09/01 05:34:26;;;;;;;1.40;0.73;;;;;;;18.42;100.00;100577.47;7393347;19;20014;-79
2022/09/01 05:36:58;;;;;;;2.35;1.20;;;;;;;18.43;100.00;100578.25;7393952;19;20665;-79
2022/09/01 05:39:26;;;;;;;0.80;0.73;;;;;;;18.45;100.00;100570.81;7389639;19;20018;-79
2022/09/01 05:41:52;;;;;;;3.92;1.15;;;;;;;18.43;100.00;100578.25;7390027;19;20019;-79
2022/09/01 05:44:23;;;;;;;1.35;0.85;;;;;;;18.42;100.00;100582.34;7388010;19;20014;-79
2022/09/01 05:46:53;;;;;;;1.40;0.73;;;;;;;18.35;100.00;100582.84;7393182;19;20029;-79
2022/09/01 05:49:19;;;;;;;1.33;0.68;;;;;;;18.32;100.00;100586.69;7392201;19;20499;-78
2022/09/01 05:51:51;;;;;;;1.25;0.73;;;;;;;18.35;100.00;100588.47;7394058;19;20037;-78
2022/09/01 05:54:24;;;;;;;3.97;1.77;;;;;;;18.38;100.00;100590.28;7391799;19;20650;-79
2022/09/01 05:56:52;;;;;;;;;;;;;;;17.79;100.00;100587.59;7394707;19;20018;-79
2022/09/01 05:59:26;;;;;;;10.10;1.17;;;;;;;17.72;100.00;100588.09;7389628;19;19931;-78
2022/09/01 06:02:12;;;;;;;3.33;0.60;;;;;;;17.56;100.00;100586.00;7388730;19;20066;-79
2022/09/01 06:04:42;;;;;;;3.95;1.80;;;;;;;17.48;100.00;100576.47;7388214;19;20030;-79
2022/09/01 06:07:16;;;;;;;1.73;1.13;;;;;;;17.44;100.00;100582.31;7392167;19;20022;-79
2022/09/01 06:09:47;;;;;;;1.55;1.05;;;;;;;17.46;100.00;100582.59;7391456;19;20472;-79
2022/09/01 06:12:22;;;;;;;0.95;0.40;;;;;;;17.40;100.00;100588.22;7392015;19;20039;-78
2022/09/01 06:14:50;;;;;;;0.77;0.45;;;;;;;17.40;100.00;100585.38;7391340;19;20077;-78
2022/09/01 06:17:22;;;;;;;0.30;0.25;;;;;;;17.45;100.00;100583.88;7394002;19;20022;-78
2022/09/01 06:19:50;;;;;;;8.38;1.42;;;;;;;17.40;100.00;100591.03;7388872;19;20104;-79
2022/09/01 06:22:17;;;;;;;1.60;1.17;;;;;;;17.53;100.00;100587.00;7387342;19;20034;-79
2022/09/01 06:24:43;;;;;;;1.67;0.63;;;;;;;17.48;100.00;100580.03;7388067;19;20036;-79
2022/09/01 06:27:10;;;;;;;8.23;1.25;;;;;;;17.32;100.00;100586.38;7391625;19;20025;-78
2022/09/01 06:29:38;;;;;;;1.33;0.85;;;;;;;17.40;100.00;100596.66;7392459;19;20049;-79
2022/09/01 06:32:08;;;;;;;1.25;0.43;;;;;;;17.50;100.00;100594.41;7390746;19;20022;-78
2022/09/01 06:34:41;;;;;;;0.70;0.68;;;;;;;17.54;100.00;100597.78;7391151;19;20018;-78
2022/09/01 06:37:08;;;;;;;2.55;0.63;;;;;;;17.56;100.00;100595.22;7392546;19;20022;-79
2022/09/01 06:39:35;;;;;;;0.93;0.38;;;;;;;17.61;100.00;100591.63;7385948;19;20037;-79
2022/09/01 06:42:02;;;;;;;0.75;0.60;;;;;;;17.64;100.00;100585.00;7387269;19;20432;-80
2022/09/01 06:44:39;;;;;;;6.78;0.93;;;;;;;17.68;100.00;100585.53;7387979;19;20021;-79
2022/09/01 06:47:07;;;;;;;1.65;0.88;;;;;;;17.67;100.00;100589.59;7391312;19;20039;-80
2022/09/01 06:49:35;;;;;;;0.40;0.20;;;;;;;17.58;100.00;100601.13;7390083;19;20357;-79
2022/09/01 06:52:05;;;;;;;0.85;0.47;;;;;;;17.59;100.00;100597.00;7391985;19;20020;-79
2022/09/01 06:54:33;;;;;;;1.35;0.88;;;;;;;17.06;100.00;100592.13;7389004;19;20033;-79
2022/09/01 06:57:02;;;;;;;4.00;0.70;;;;;;;17.32;100.00;100589.19;7392110;19;20018;-79
2022/09/01 06:59:32;;;;;;;1.98;1.08;;;;;;;17.67;100.00;100586.78;7386714;19;20015;-80
2022/09/01 07:02:02;;;;;;;1.27;0.32;;;;;;;17.83;100.00;100594.53;7391701;19;20473;-80
2022/09/01 07:04:41;;;;;;;1.17;0.37;;;;;;;17.88;100.00;100590.19;7387913;19;21034;-81
2022/09/01 07:07:12;;;;;;;1.15;0.60;;;;;;;18.14;100.00;100585.13;7390520;19;20343;-76
2022/09/01 07:09:56;;;;;;;0.60;0.57;;;;;;;18.32;100.00;100586.69;7390690;19;20015;-77
2022/09/01 07:12:34;;;;;;;15.85;0.70;;;;;;;18.33;100.00;100586.19;7390248;19;20046;-76
2022/09/01 07:15:01;;;;;;;0.80;0.63;;;;;;;18.46;100.00;100588.53;7389188;19;20010;-76
2022/09/01 07:17:29;;;;;;;0.70;0.52;;;;;;;18.67;100.00;100587.75;7385753;19;20010;-81
2022/09/01 07:19:57;;;;;;;0.73;0.60;;;;;;;18.62;100.00;100590.59;7385988;19;20043;-81
2022/09/01 07:22:25;;;;;;;1.95;0.95;;;;;;;18.71;100.00;100590.34;7386997;19;20026;-81
2022/09/01 07:24:56;;;;;;;1.75;0.50;;;;;;;18.79;100.00;100594.94;7387108;19;20372;-81
2022/09/01 07:27:51;;;;;;;0.82;0.40;;;;;;;19.04;100.00;100587.44;7386671;19;20014;-82
2022/09/01 07:30:20;;;;;;;1.52;0.63;;;;;;;18.86;100.00;100593.66;7391810;19;20022;-82
2022/09/01 07:32:49;;;;;;;1.02;0.75;;;;;;;18.96;100.00;100592.09;7388806;19;20025;-82
2022/09/01 07:35:20;;;;;;;0.52;0.45;;;;;;;19.00;100.00;100591.81;7387481;19;20041;-82
2022/09/01 07:37:47;;;;;;;0.32;0.20;;;;;;;19.07;100.00;100591.28;7389173;19;20014;-82
2022/09/01 07:40:17;;;;;;;1.05;0.73;;;;;;;19.14;100.00;100580.25;7388386;19;20010;-82
2022/09/01 07:43:15;;;;;;;1.08;0.28;;;;;;;19.37;100.00;100587.38;7392817;19;20015;-84
2022/09/01 07:46:08;;;;;;;2.00;0.60;;;;;;;19.57;100.00;100583.47;7393457;19;20467;-84
2022/09/01 07:48:35;;;;;;;2.90;0.30;;;;;;;19.66;100.00;100586.75;7395250;19;20044;-84
2022/09/01 07:51:02;;;;;;;0.28;0.20;;;;;;;20.44;100.00;100579.88;7393640;19;20035;-83
2022/09/01 07:53:32;;;;;;;1.80;0.40;;;;;;;20.49;100.00;100582.66;7388492;19;20015;-84
2022/09/01 07:56:08;;;;;;;0.75;0.55;;;;;;;20.61;100.00;100578.44;7391026;19;20032;-83
2022/09/01 07:58:40;;;;;;;0.40;0.32;;;;;;;20.66;100.00;100574.78;7389537;19;20014;-83
2022/09/01 08:01:10;;;;;;;0.57;0.20;;;;;;;20.74;100.00;100578.59;7393303;19;20014;-84
2022/09/01 08:03:38;;;;;;;2.05;0.30;;;;;;;20.69;100.00;100576.56;7390765;19;20010;-84
2022/09/01 08:06:07;;;;;;;3.95;0.50;;;;;;;20.81;100.00;100585.75;7393173;19;20070;-84
2022/09/01 08:08:36;;;;;;;0.85;0.28;;;;;;;21.04;100.00;100582.19;7390352;19;20349;-83
2022/09/01 08:11:03;;;;;;;0.80;0.30;;;;;;;21.21;100.00;100584.06;7391052;19;20011;-84
2022/09/01 08:13:30;;;;;;;5.68;0.32;;;;;;;21.32;100.00;100589.59;7390837;19;20019;-84
2022/09/01 08:15:56;;;;;;;0.13;0.13;;;;;;;21.33;100.00;100577.72;7392492;19;20035;-84
2022/09/01 08:18:22;;;;;;;0.60;0.38;;;;;;;21.51;100.00;100584.72;7390034;19;20011;-85
2022/09/01 08:20:49;;;;;;;2.78;0.52;;;;;;;21.62;100.00;100578.94;7389338;19;20374;-86
2022/09/01 08:23:41;;;;;;;1.15;0.60;;;;;;;21.74;100.00;100592.41;7388473;19;20015;-78
2022/09/01 08:26:13;;;;;;;0.88;0.15;;;;;;;21.77;100.00;100585.69;7388374;19;20061;-79
2022/09/01 08:28:39;;;;;;;0.30;0.20;;;;;;;21.83;100.00;100580.72;7385924;19;20029;-79
2022/09/01 08:31:12;;;;;;;0.30;0.30;;;;;;;22.04;100.00;100580.97;7390068;19;20025;-80
2022/09/01 08:33:40;;;;;;;2.25;0.20;;;;;;;22.33;100.00;100584.91;7386327;19;20022;-77
2022/09/01 08:36:09;;;;;;;0.20;0.20;;;;;;;22.57;100.00;100579.88;7388026;19;20018;-80
2022/09/01 08:38:36;;;;;;;7.13;0.20;;;;;;;22.78;100.00;100585.75;7385313;19;20045;-79
2022/09/01 08:41:11;;;;;;;0.57;0.10;;;;;;;22.75;100.00;100581.16;7384524;19;20428;-80
2022/09/01 08:43:53;;;;;;;7.03;0.63;;;;;;;22.74;100.00;100582.44;7384283;19;20022;-80
2022/09/01 08:46:26;;;;;;;0.10;0.10;;;;;;;22.59;100.00;100580.13;7386105;19;20403;-80
2022/09/01 08:48:56;;;;;;;0.52;0.28;;;;;;;22.47;100.00;100566.63;7385007;19;20014;-80
2022/09/01 08:51:31;;;;;;;0.10;0.00;;;;;;;22.54;100.00;100572.41;7386867;19;20022;-80
2022/09/01 08:54:02;;;;;;;4.78;0.32;;;;;;;22.56;100.00;100575.50;7385671;19;20021;-79
2022/09/01 08:56:29;;;;;;;0.20;0.10;;;;;;;22.79;100.00;100578.75;7387548;19;20022;-79
2022/09/01 08:58:57;;;;;;;0.43;0.15;;;;;;;22.91;100.00;100565.13;7383811;19;20493;-80
2022/09/01 09:01:54;;;;;;;1.23;0.50;;;;;;;22.72;100.00;100564.44;7386495;19;20476;-80
2022/09/01 09:04:39;;;;;;;2.75;0.30;;;;;;;22.66;100.00;100566.59;7383598;19;20042;-80
2022/09/01 09:07:12;;;;;;;0.20;0.10;;;;;;;22.55;100.00;100562.59;7388380;19;20011;-81
2022/09/01 09:09:49;;;;;;;0.20;0.10;;;;;;;22.60;100.00;100575.97;7385155;19;20033;-80
2022/09/01 09:12:40;;;;;;;0.50;0.30;;;;;;;22.71;100.00;100557.22;7385224;19;20023;-79
2022/09/01 09:15:06;;;;;;;0.10;0.00;;;;;;;22.81;100.00;100566.84;7386664;19;20033;-78
2022/09/01 09:17:42;;;;;;;1.38;0.32;;;;;;;23.01;100.00;100557.69;7384383;19;20018;-79
2022/09/01 09:20:09;;;;;;;1.63;0.32;;;;;;;23.12;100.00;100554.63;7384977;19;20078;-79
2022/09/01 09:22:36;;;;;;;1.75;0.10;;;;;;;23.14;100.00;100549.16;7382389;19;20021;-79
2022/09/01 09:25:15;;;;;;;0.43;0.20;;;;;;;23.24;100.00;100547.41;7383063;19;20059;-79
2022/09/01 09:27:44;;;;;;;0.05;0.00;;;;;;;23.24;100.00;100547.41;7384920;19;20653;-79
2022/09/01 09:30:30;;;;;;;0.45;0.00;;;;;;;23.59;100.00;100538.44;7386367;19;20023;-78
2022/09/01 09:33:05;;;;;;;1.05;0.20;;;;;;;23.68;100.00;100540.06;7386641;19;20026;-78
2022/09/01 09:35:37;;;;;;;2.22;0.30;;;;;;;23.68;100.00;100535.16;7385790;19;20018;-79
2022/09/01 09:38:18;;;;;;;0.20;0.10;;;;;;;23.77;100.00;100543.22;7384475;19;20048;-79
2022/09/01 09:41:01;;;;;;;0.20;0.20;;;;;;;23.79;100.00;100548.34;7381156;19;20360;-79
2022/09/01 09:43:30;;;;;;;0.20;0.00;;;;;;;23.39;100.00;100544.81;7385185;19;20047;-79
2022/09/01 09:46:35;;;;;;;0.60;0.10;;;;;;;22.98;100.00;100550.25;7385049;19;20015;-79
2022/09/01 09:49:13;;;;;;;0.20;0.20;;;;;;;23.17;100.00;100548.84;7384905;19;20014;-79
2022/09/01 09:51:47;;;;;;;0.10;0.10;;;;;;;23.25;100.00;100537.59;7388307;19;20018;-79
2022/09/01 09:54:24;;;;;;;0.20;0.00;;;;;;;23.30;100.00;100539.56;7384444;19;20050;-79
2022/09/01 09:57:16;;;;;;;1.27;0.22;;;;;;;23.27;100.00;100534.97;7386303;19;20047;-79
2022/09/01 09:59:52;;;;;;;0.20;0.10;;;;;;;23.15;100.00;100527.97;7383392;19;20018;-79
2022/09/01 10:02:40;;;;;;;1.10;0.20;;;;;;;22.88;100.00;100527.19;7381729;19;20105;-79
2022/09/01 10:05:40;;;;;;;0.73;0.35;;;;;;;23.01;100.00;100526.44;7382655;19;20015;-79
2022/09/01 10:08:33;;;;;;;;;;;;;;;23.71;100.00;100522.69;7383696;19;20026;-78
2022/09/01 10:10:59;;;;;;;0.93;0.32;;;;;;;24.14;100.00;100527.13;7381424;19;19953;-78
2022/09/01 10:13:30;;;;;;;0.50;0.13;;;;;;;24.41;100.00;100525.69;7381187;19;20010;-78
2022/09/01 10:16:00;;;;;;;0.25;0.05;;;;;;;24.52;100.00;100525.41;7387491;19;20468;-79
2022/09/01 10:18:46;;;;;;;0.10;0.08;;;;;;;24.65;100.00;100516.78;7388444;19;20014;-80
2022/09/01 10:21:22;;;;;;;0.10;0.10;;;;;;;24.55;100.00;100518.59;7390568;19;20021;-81
2022/09/01 10:23:49;;;;;;;2.88;0.30;;;;;;;24.51;100.00;100515.34;7390728;19;20007;-81
2022/09/01 10:26:22;;;;;;;0.20;0.10;;;;;;;24.53;100.00;100512.69;7393375;19;20041;-80
2022/09/01 10:28:58;;;;;;;6.82;0.28;;;;;;;24.75;100.00;100510.03;7390066;19;20031;-79
2022/09/01 10:31:25;;;;;;;0.05;0.00;;;;;;;25.03;98.81;100517.84;7393781;19;20019;-82
2022/09/01 10:33:52;;;;;;;0.20;0.10;;;;;;;25.43;99.15;100504.00;7391333;19;20125;-79
2022/09/01 10:36:21;;;;;;;4.68;0.20;;;;;;;25.75;99.44;100497.88;7392460;19;20017;-80
2022/09/01 10:38:48;;;;;;;0.55;0.05;;;;;;;25.70;99.21;100505.28;7390436;19;20026;-79
2022/09/01 10:41:43;;;;;;;1.42;0.52;;;;;;;25.23;99.23;100508.44;7387661;19;20023;-81
2022/09/01 10:44:18;;;;;;;1.02;0.35;;;;;;;25.08;98.85;100505.50;7388147;19;20014;-80
2022/09/01 10:46:45;;;;;;;7.50;0.40;;;;;;;24.92;100.00;100492.50;7391686;19;20417;-80
2022/09/01 10:49:26;;;;;;;0.40;0.05;;;;;;;24.94;100.00;100492.72;7391094;19;20030;-80
2022/09/01 10:51:54;;;;;;;1.35;0.20;;;;;;;25.04;99.61;100496.56;7392606;19;20090;-80
2022/09/01 10:54:39;;;;;;;0.95;0.20;;;;;;;25.31;96.18;100488.53;7391028;19;20473;-80
2022/09/01 10:57:17;;;;;;;1.17;0.10;;;;;;;25.50;95.99;100481.25;7394157;19;20768;-80
2022/09/01 10:59:43;;;;;;;0.10;0.00;;;;;;;25.56;96.10;100489.59;7387504;19;20018;-81
2022/09/01 11:02:17;;;;;;;0.10;0.00;;;;;;;25.67;94.56;100474.25;7388744;19;20017;-80
2022/09/01 11:04:43;;;;;;;2.60;0.28;;;;;;;25.83;94.65;100467.25;7389404;19;20027;-81
2022/09/01 11:07:22;;;;;;;0.93;0.32;;;;;;;26.00;93.13;100471.09;7390496;19;20019;-80
2022/09/01 11:10:25;;;;;;;9.20;0.28;;;;;;;25.63;94.57;100468.13;7390600;19;20025;-79
2022/09/01 11:13:21;;;;;;;0.32;0.08;;;;;;;25.65;93.30;100466.25;7390823;19;20077;-79
2022/09/01 11:15:48;;;;;;;4.03;0.20;;;;;;;25.58;93.39;100464.91;7390451;19;20006;-79
2022/09/01 11:18:32;;;;;;;1.30;0.30;;;;;;;25.79;90.94;100455.44;7387318;19;20031;-79
2022/09/01 11:21:24;;;;;;;2.60;0.40;;;;;;;25.87;90.85;100447.66;7390264;19;20092;-79
2022/09/01 11:23:50;;;;;;;2.40;0.10;;;;;;;25.91;91.50;100457.38;7390540;19;20110;-79
2022/09/01 11:26:31;;;;;;;1.75;0.55;;;;;;;25.86;90.81;100454.72;7389079;19;20050;-79
2022/09/01 11:28:58;;;;;;;0.10;0.10;;;;;;;25.67;91.22;100471.38;7388331;19;20018;-80
2022/09/01 11:31:29;;;;;;;2.50;0.10;;;;;;;25.67;91.94;100460.75;7393908;19;20030;-79
2022/09/01 11:34:08;;;;;;;3.63;0.52;;;;;;;25.68;91.56;100452.94;7388265;19;20490;-80
2022/09/01 11:36:45;;;;;;;1.20;0.28;;;;;;;25.86;91.25;100446.88;7392620;19;20023;-80
2022/09/01 11:39:25;;;;;;;2.15;0.10;;;;;;;25.85;90.93;100450.31;7387621;19;20476;-80
2022/09/01 11:42:04;;;;;;;0.10;0.00;;;;;;;25.90;88.08;100449.38;7385379;19;20014;-79
2022/09/01 11:45:03;;;;;;;3.83;0.25;;;;;;;26.06;88.36;100439.50;7392277;19;21003;-79
2022/09/01 11:47:39;;;;;;;0.10;0.00;;;;;;;26.29;88.66;100437.47;7385084;19;20026;-79